Hicksville, Virginia
Current Conditions -  °F | °C
As of 12:52 AM on Thursday 23 Oct 2014 (Local Time) from KBLF Reporting Station
Overcast Overcast  
Wind Chill:   Ceiling: 500
Heat Index:   Visibility: 9mi
Dew Point:   Wind: 8mph
Humidity: 86%   Direction: 310°NW
Pressure: 30.15"   Gusts: NA
Location:  37.1593°N, 81.1986°W
Report Text: KBLF 230452Z AUTO 31007KT 9SM OVC005 06/04 A3015 RMK AO2 CIG 004V009 SLP211 T00610039 400780050
Loading
Personal Weather Stations






























Interactive Weather Map
Tropical Storm Tracking
New forecast layout! Learn more

10-Day Weather Forecast

Advertisements
Track Severe Weather on mobile